Terminal Aerodrome Forecast
Issued by NWS

Home | Current Version | Previous Version | Text Only | Print | Product List | Glossary On
Versions: 1 2 3 4 5 6 7 8 9 10 11 12 13 14 15 16 17 18 19
000
FTUS45 KRIW 311300 AAA
TAFWRL
TAF AMD
KWRL 311356Z 3114/0112 VRB03KT 1/4SM FZFG VV001
     FM311600 VRB04KT 3SM BR SCT001 BKN120
     FM311800 31008KT P6SM SCT250
     FM312100 33012KT P6SM OVC040
     FM010100 33009KT 6SM -SN OVC020
     FM010800 30006KT P6SM SCT020 OVC035=

USA.gov is the U.S. government's official web portal to all federal, state and local government web resources and services.